Schofer, Pennsylvania
Current Conditions -  °F | °C
As of 6:54 AM on Friday 24 Oct 2014 (Local Time) from KRDG Reporting Station
Overcast Overcast  
Wind Chill: 56°   Ceiling: 3300
Heat Index: 56°   Visibility: 10mi
Dew Point: 45°   Wind: 17mph
Humidity: 67%   Direction: 320°NW
Pressure: 29.87"   Gusts: 25mph
Location:  40.5336°N, 75.7775°W
Report Text: KRDG 241054Z 32015G22KT 10SM OVC033 13/07 A2987 RMK AO2 SLP120 T01330072
Loading
Personal Weather Stations






























Interactive Weather Map New forecast layout! Learn more

10-Day Weather Forecast

Advertisements
Track Severe Weather on mobile